sensor_id;sensor_type;location;lat;lon;timestamp;P1;durP1;ratioP1;P2;durP2;ratioP2
52718;SDS011;38616;42.140;24.760;2023-04-19T00:01:43;5.85;;;2.60;;
52718;SDS011;38616;42.140;24.760;2023-04-19T00:04:09;4.50;;;2.45;;
52718;SDS011;38616;42.140;24.760;2023-04-19T00:06:34;6.45;;;2.70;;
52718;SDS011;38616;42.140;24.760;2023-04-19T00:09:00;9.32;;;3.05;;
52718;SDS011;38616;42.140;24.760;2023-04-19T00:11:25;3.97;;;2.40;;
52718;SDS011;38616;42.140;24.760;2023-04-19T00:13:51;6.22;;;2.55;;
52718;SDS011;38616;42.140;24.760;2023-04-19T00:16:16;4.45;;;2.63;;
52718;SDS011;38616;42.140;24.760;2023-04-19T00:18:42;7.22;;;3.00;;
52718;SDS011;38616;42.140;24.760;2023-04-19T00:21:07;6.00;;;2.92;;
52718;SDS011;38616;42.140;24.760;2023-04-19T00:23:33;4.85;;;2.63;;
52718;SDS011;38616;42.140;24.760;2023-04-19T00:26:02;5.60;;;2.63;;
52718;SDS011;38616;42.140;24.760;2023-04-19T00:28:28;5.63;;;2.67;;
52718;SDS011;38616;42.140;24.760;2023-04-19T00:30:54;4.22;;;2.53;;
52718;SDS011;38616;42.140;24.760;2023-04-19T00:33:20;4.18;;;2.85;;
52718;SDS011;38616;42.140;24.760;2023-04-19T00:35:45;4.80;;;2.92;;
52718;SDS011;38616;42.140;24.760;2023-04-19T00:38:11;5.60;;;2.92;;
52718;SDS011;38616;42.140;24.760;2023-04-19T00:40:36;5.88;;;3.28;;
52718;SDS011;38616;42.140;24.760;2023-04-19T00:43:02;7.75;;;2.90;;
52718;SDS011;38616;42.140;24.760;2023-04-19T00:45:27;5.20;;;3.35;;
52718;SDS011;38616;42.140;24.760;2023-04-19T00:47:53;6.20;;;3.55;;
52718;SDS011;38616;42.140;24.760;2023-04-19T00:50:19;5.72;;;3.35;;
52718;SDS011;38616;42.140;24.760;2023-04-19T00:52:45;5.70;;;3.60;;
52718;SDS011;38616;42.140;24.760;2023-04-19T00:55:11;6.47;;;3.78;;
52718;SDS011;38616;42.140;24.760;2023-04-19T00:57:37;6.32;;;3.58;;
52718;SDS011;38616;42.140;24.760;2023-04-19T01:00:03;6.88;;;3.33;;
52718;SDS011;38616;42.140;24.760;2023-04-19T01:02:31;6.00;;;3.35;;
52718;SDS011;38616;42.140;24.760;2023-04-19T01:04:56;5.05;;;3.00;;
52718;SDS011;38616;42.140;24.760;2023-04-19T01:07:22;5.30;;;2.97;;
52718;SDS011;38616;42.140;24.760;2023-04-19T01:09:48;4.45;;;2.63;;
52718;SDS011;38616;42.140;24.760;2023-04-19T01:12:13;3.90;;;2.70;;
52718;SDS011;38616;42.140;24.760;2023-04-19T01:14:39;8.13;;;2.72;;
52718;SDS011;38616;42.140;24.760;2023-04-19T01:17:05;3.92;;;2.15;;
52718;SDS011;38616;42.140;24.760;2023-04-19T01:19:31;4.30;;;2.55;;
52718;SDS011;38616;42.140;24.760;2023-04-19T01:21:58;4.57;;;2.13;;
52718;SDS011;38616;42.140;24.760;2023-04-19T01:24:24;2.72;;;1.95;;
52718;SDS011;38616;42.140;24.760;2023-04-19T01:26:50;3.58;;;2.05;;
52718;SDS011;38616;42.140;24.760;2023-04-19T01:29:15;3.10;;;2.00;;
52718;SDS011;38616;42.140;24.760;2023-04-19T01:31:44;2.87;;;1.90;;
52718;SDS011;38616;42.140;24.760;2023-04-19T01:34:15;2.13;;;1.70;;
52718;SDS011;38616;42.140;24.760;2023-04-19T01:36:40;2.45;;;1.52;;
52718;SDS011;38616;42.140;24.760;2023-04-19T01:39:06;3.17;;;1.70;;
52718;SDS011;38616;42.140;24.760;2023-04-19T01:41:31;4.95;;;1.50;;
52718;SDS011;38616;42.140;24.760;2023-04-19T01:43:56;4.85;;;1.80;;
52718;SDS011;38616;42.140;24.760;2023-04-19T01:46:22;2.85;;;1.52;;
52718;SDS011;38616;42.140;24.760;2023-04-19T01:48:47;2.20;;;1.40;;
52718;SDS011;38616;42.140;24.760;2023-04-19T01:51:13;3.75;;;1.60;;
52718;SDS011;38616;42.140;24.760;2023-04-19T01:53:38;3.65;;;1.48;;
52718;SDS011;38616;42.140;24.760;2023-04-19T01:56:04;2.88;;;1.20;;
52718;SDS011;38616;42.140;24.760;2023-04-19T01:58:29;2.72;;;1.30;;
52718;SDS011;38616;42.140;24.760;2023-04-19T02:00:55;2.05;;;1.15;;
52718;SDS011;38616;42.140;24.760;2023-04-19T02:03:20;4.15;;;1.65;;
52718;SDS011;38616;42.140;24.760;2023-04-19T02:05:45;1.85;;;1.17;;
52718;SDS011;38616;42.140;24.760;2023-04-19T02:08:11;1.35;;;1.08;;
52718;SDS011;38616;42.140;24.760;2023-04-19T02:10:36;2.65;;;0.90;;
52718;SDS011;38616;42.140;24.760;2023-04-19T02:13:01;1.10;;;0.98;;
52718;SDS011;38616;42.140;24.760;2023-04-19T02:15:27;2.17;;;1.45;;
52718;SDS011;38616;42.140;24.760;2023-04-19T02:17:52;2.20;;;1.15;;
52718;SDS011;38616;42.140;24.760;2023-04-19T02:20:18;2.15;;;1.30;;
52718;SDS011;38616;42.140;24.760;2023-04-19T02:22:43;2.50;;;1.48;;
52718;SDS011;38616;42.140;24.760;2023-04-19T02:25:09;1.40;;;1.15;;
52718;SDS011;38616;42.140;24.760;2023-04-19T02:27:34;1.90;;;1.63;;
52718;SDS011;38616;42.140;24.760;2023-04-19T02:29:59;2.15;;;1.63;;
52718;SDS011;38616;42.140;24.760;2023-04-19T02:32:25;2.83;;;1.67;;
52718;SDS011;38616;42.140;24.760;2023-04-19T02:34:51;1.75;;;1.60;;
52718;SDS011;38616;42.140;24.760;2023-04-19T02:37:16;1.75;;;1.40;;
52718;SDS011;38616;42.140;24.760;2023-04-19T02:39:42;2.50;;;1.50;;
52718;SDS011;38616;42.140;24.760;2023-04-19T02:42:09;1.58;;;1.45;;
52718;SDS011;38616;42.140;24.760;2023-04-19T02:44:35;1.60;;;1.40;;
52718;SDS011;38616;42.140;24.760;2023-04-19T02:47:00;1.88;;;1.20;;
52718;SDS011;38616;42.140;24.760;2023-04-19T02:49:26;1.80;;;1.30;;
52718;SDS011;38616;42.140;24.760;2023-04-19T02:51:51;1.42;;;1.33;;
52718;SDS011;38616;42.140;24.760;2023-04-19T02:54:16;2.17;;;1.52;;
52718;SDS011;38616;42.140;24.760;2023-04-19T02:56:42;1.73;;;1.10;;
52718;SDS011;38616;42.140;24.760;2023-04-19T02:59:07;1.42;;;1.00;;
52718;SDS011;38616;42.140;24.760;2023-04-19T03:01:33;1.42;;;1.10;;
52718;SDS011;38616;42.140;24.760;2023-04-19T03:03:58;1.08;;;0.82;;
52718;SDS011;38616;42.140;24.760;2023-04-19T03:06:24;1.92;;;1.00;;
52718;SDS011;38616;42.140;24.760;2023-04-19T03:08:50;1.15;;;1.00;;
52718;SDS011;38616;42.140;24.760;2023-04-19T03:11:15;1.65;;;0.98;;
52718;SDS011;38616;42.140;24.760;2023-04-19T03:13:41;2.55;;;0.90;;
52718;SDS011;38616;42.140;24.760;2023-04-19T03:16:07;1.45;;;1.20;;
52718;SDS011;38616;42.140;24.760;2023-04-19T03:18:34;2.80;;;1.30;;
52718;SDS011;38616;42.140;24.760;2023-04-19T03:21:00;2.10;;;1.25;;
52718;SDS011;38616;42.140;24.760;2023-04-19T03:23:26;5.88;;;1.33;;
52718;SDS011;38616;42.140;24.760;2023-04-19T03:25:51;1.25;;;0.80;;
52718;SDS011;38616;42.140;24.760;2023-04-19T03:28:17;3.50;;;1.63;;
52718;SDS011;38616;42.140;24.760;2023-04-19T03:30:42;2.55;;;1.40;;
52718;SDS011;38616;42.140;24.760;2023-04-19T03:33:08;2.88;;;1.67;;
52718;SDS011;38616;42.140;24.760;2023-04-19T03:35:33;1.85;;;1.20;;
52718;SDS011;38616;42.140;24.760;2023-04-19T03:37:58;3.70;;;1.40;;
52718;SDS011;38616;42.140;24.760;2023-04-19T03:40:24;2.40;;;1.10;;
52718;SDS011;38616;42.140;24.760;2023-04-19T03:42:49;2.17;;;1.00;;
52718;SDS011;38616;42.140;24.760;2023-04-19T03:45:15;2.65;;;1.02;;
52718;SDS011;38616;42.140;24.760;2023-04-19T03:47:40;1.58;;;0.82;;
52718;SDS011;38616;42.140;24.760;2023-04-19T03:50:06;3.05;;;1.27;;
52718;SDS011;38616;42.140;24.760;2023-04-19T03:52:32;3.83;;;1.35;;
52718;SDS011;38616;42.140;24.760;2023-04-19T03:54:58;2.40;;;1.52;;
52718;SDS011;38616;42.140;24.760;2023-04-19T03:57:23;5.65;;;1.77;;
52718;SDS011;38616;42.140;24.760;2023-04-19T03:59:49;2.42;;;1.20;;
52718;SDS011;38616;42.140;24.760;2023-04-19T04:02:14;2.67;;;1.20;;
52718;SDS011;38616;42.140;24.760;2023-04-19T04:04:41;3.10;;;1.23;;
52718;SDS011;38616;42.140;24.760;2023-04-19T04:07:06;1.08;;;0.93;;
52718;SDS011;38616;42.140;24.760;2023-04-19T04:09:32;2.50;;;1.27;;
52718;SDS011;38616;42.140;24.760;2023-04-19T04:11:57;1.45;;;1.08;;
52718;SDS011;38616;42.140;24.760;2023-04-19T04:14:23;5.70;;;2.55;;
52718;SDS011;38616;42.140;24.760;2023-04-19T04:16:48;4.97;;;2.28;;
52718;SDS011;38616;42.140;24.760;2023-04-19T04:19:13;2.15;;;1.40;;
52718;SDS011;38616;42.140;24.760;2023-04-19T04:21:39;1.33;;;1.00;;
52718;SDS011;38616;42.140;24.760;2023-04-19T04:24:04;2.55;;;1.38;;
52718;SDS011;38616;42.140;24.760;2023-04-19T04:26:31;1.33;;;1.17;;
52718;SDS011;38616;42.140;24.760;2023-04-19T04:28:58;3.05;;;1.92;;
52718;SDS011;38616;42.140;24.760;2023-04-19T04:31:26;3.42;;;2.35;;
52718;SDS011;38616;42.140;24.760;2023-04-19T04:33:51;1.77;;;1.30;;
52718;SDS011;38616;42.140;24.760;2023-04-19T04:36:19;3.53;;;2.55;;
52718;SDS011;38616;42.140;24.760;2023-04-19T04:38:45;4.00;;;1.75;;
52718;SDS011;38616;42.140;24.760;2023-04-19T04:41:10;5.28;;;1.40;;
52718;SDS011;38616;42.140;24.760;2023-04-19T04:43:36;3.63;;;1.45;;
52718;SDS011;38616;42.140;24.760;2023-04-19T04:46:02;1.83;;;1.23;;
52718;SDS011;38616;42.140;24.760;2023-04-19T04:48:28;2.15;;;1.40;;
52718;SDS011;38616;42.140;24.760;2023-04-19T04:50:55;2.70;;;1.50;;
52718;SDS011;38616;42.140;24.760;2023-04-19T04:53:21;3.00;;;1.58;;
52718;SDS011;38616;42.140;24.760;2023-04-19T04:55:47;1.73;;;1.05;;
52718;SDS011;38616;42.140;24.760;2023-04-19T04:58:12;2.03;;;1.30;;
52718;SDS011;38616;42.140;24.760;2023-04-19T05:00:38;4.78;;;1.60;;
52718;SDS011;38616;42.140;24.760;2023-04-19T05:03:03;3.20;;;1.70;;
52718;SDS011;38616;42.140;24.760;2023-04-19T05:05:28;1.67;;;1.23;;
52718;SDS011;38616;42.140;24.760;2023-04-19T05:07:54;2.97;;;1.75;;
52718;SDS011;38616;42.140;24.760;2023-04-19T05:10:19;2.63;;;1.30;;
52718;SDS011;38616;42.140;24.760;2023-04-19T05:12:45;4.35;;;1.05;;
52718;SDS011;38616;42.140;24.760;2023-04-19T05:15:10;1.10;;;1.00;;
52718;SDS011;38616;42.140;24.760;2023-04-19T05:17:38;2.28;;;1.35;;
52718;SDS011;38616;42.140;24.760;2023-04-19T05:20:04;1.48;;;1.05;;
52718;SDS011;38616;42.140;24.760;2023-04-19T05:22:30;2.60;;;1.58;;
52718;SDS011;38616;42.140;24.760;2023-04-19T05:24:55;2.60;;;1.80;;
52718;SDS011;38616;42.140;24.760;2023-04-19T05:27:21;2.13;;;1.33;;
52718;SDS011;38616;42.140;24.760;2023-04-19T05:29:46;1.60;;;1.35;;
52718;SDS011;38616;42.140;24.760;2023-04-19T05:32:11;1.88;;;1.25;;
52718;SDS011;38616;42.140;24.760;2023-04-19T05:34:55;2.65;;;1.27;;
52718;SDS011;38616;42.140;24.760;2023-04-19T05:37:20;1.88;;;1.17;;
52718;SDS011;38616;42.140;24.760;2023-04-19T05:39:48;2.47;;;1.30;;
52718;SDS011;38616;42.140;24.760;2023-04-19T05:42:13;1.30;;;1.13;;
52718;SDS011;38616;42.140;24.760;2023-04-19T05:44:38;1.75;;;1.10;;
52718;SDS011;38616;42.140;24.760;2023-04-19T05:47:04;2.03;;;1.40;;
52718;SDS011;38616;42.140;24.760;2023-04-19T05:49:29;1.52;;;1.20;;
52718;SDS011;38616;42.140;24.760;2023-04-19T05:51:54;2.60;;;1.45;;
52718;SDS011;38616;42.140;24.760;2023-04-19T05:54:20;1.52;;;1.10;;
52718;SDS011;38616;42.140;24.760;2023-04-19T05:56:51;2.22;;;1.40;;
52718;SDS011;38616;42.140;24.760;2023-04-19T05:59:16;2.40;;;2.05;;
52718;SDS011;38616;42.140;24.760;2023-04-19T06:01:42;2.30;;;1.60;;
52718;SDS011;38616;42.140;24.760;2023-04-19T06:04:07;5.65;;;1.55;;
52718;SDS011;38616;42.140;24.760;2023-04-19T06:06:32;4.63;;;1.50;;
52718;SDS011;38616;42.140;24.760;2023-04-19T06:08:58;3.90;;;1.70;;
52718;SDS011;38616;42.140;24.760;2023-04-19T06:11:23;3.45;;;1.45;;
52718;SDS011;38616;42.140;24.760;2023-04-19T06:13:49;3.55;;;1.77;;
52718;SDS011;38616;42.140;24.760;2023-04-19T06:16:15;4.43;;;1.98;;
52718;SDS011;38616;42.140;24.760;2023-04-19T06:18:41;3.45;;;1.73;;
52718;SDS011;38616;42.140;24.760;2023-04-19T06:21:07;2.97;;;1.40;;
52718;SDS011;38616;42.140;24.760;2023-04-19T06:23:32;2.33;;;1.48;;
52718;SDS011;38616;42.140;24.760;2023-04-19T06:25:58;5.20;;;1.77;;
52718;SDS011;38616;42.140;24.760;2023-04-19T06:28:23;2.38;;;1.60;;
52718;SDS011;38616;42.140;24.760;2023-04-19T06:30:48;2.83;;;1.52;;
52718;SDS011;38616;42.140;24.760;2023-04-19T06:33:14;3.08;;;1.45;;
52718;SDS011;38616;42.140;24.760;2023-04-19T06:35:39;2.03;;;1.17;;
52718;SDS011;38616;42.140;24.760;2023-04-19T06:38:05;4.03;;;1.33;;
52718;SDS011;38616;42.140;24.760;2023-04-19T06:40:31;2.47;;;1.40;;
52718;SDS011;38616;42.140;24.760;2023-04-19T06:42:56;4.50;;;1.75;;
52718;SDS011;38616;42.140;24.760;2023-04-19T06:45:21;1.83;;;1.40;;
52718;SDS011;38616;42.140;24.760;2023-04-19T06:47:47;2.10;;;1.25;;
52718;SDS011;38616;42.140;24.760;2023-04-19T06:50:12;8.02;;;1.60;;
52718;SDS011;38616;42.140;24.760;2023-04-19T06:52:38;3.10;;;1.67;;
52718;SDS011;38616;42.140;24.760;2023-04-19T06:55:04;4.35;;;1.30;;
52718;SDS011;38616;42.140;24.760;2023-04-19T06:57:31;4.53;;;1.70;;
52718;SDS011;38616;42.140;24.760;2023-04-19T06:59:56;2.55;;;1.45;;
52718;SDS011;38616;42.140;24.760;2023-04-19T07:02:22;2.83;;;1.73;;
52718;SDS011;38616;42.140;24.760;2023-04-19T07:04:53;4.05;;;1.70;;
52718;SDS011;38616;42.140;24.760;2023-04-19T07:07:19;12.05;;;1.65;;
52718;SDS011;38616;42.140;24.760;2023-04-19T07:09:44;3.88;;;2.10;;
52718;SDS011;38616;42.140;24.760;2023-04-19T07:12:10;2.90;;;1.60;;
52718;SDS011;38616;42.140;24.760;2023-04-19T07:14:35;4.25;;;1.60;;
52718;SDS011;38616;42.140;24.760;2023-04-19T07:17:02;3.40;;;1.92;;
52718;SDS011;38616;42.140;24.760;2023-04-19T07:19:28;2.25;;;1.55;;
52718;SDS011;38616;42.140;24.760;2023-04-19T07:21:53;2.53;;;2.00;;
52718;SDS011;38616;42.140;24.760;2023-04-19T07:24:19;4.22;;;2.00;;
52718;SDS011;38616;42.140;24.760;2023-04-19T07:26:44;2.90;;;1.55;;
52718;SDS011;38616;42.140;24.760;2023-04-19T07:29:10;3.47;;;1.88;;
52718;SDS011;38616;42.140;24.760;2023-04-19T07:31:35;5.95;;;1.70;;
52718;SDS011;38616;42.140;24.760;2023-04-19T07:34:01;4.40;;;1.73;;
52718;SDS011;38616;42.140;24.760;2023-04-19T07:36:26;2.92;;;1.60;;
52718;SDS011;38616;42.140;24.760;2023-04-19T07:38:52;2.08;;;1.42;;
52718;SDS011;38616;42.140;24.760;2023-04-19T07:41:17;3.70;;;1.90;;
52718;SDS011;38616;42.140;24.760;2023-04-19T07:43:43;3.10;;;2.00;;
52718;SDS011;38616;42.140;24.760;2023-04-19T07:46:12;5.57;;;2.08;;
52718;SDS011;38616;42.140;24.760;2023-04-19T07:48:40;1.80;;;1.50;;
52718;SDS011;38616;42.140;24.760;2023-04-19T07:51:15;3.83;;;1.55;;
52718;SDS011;38616;42.140;24.760;2023-04-19T07:53:43;3.45;;;1.95;;
52718;SDS011;38616;42.140;24.760;2023-04-19T07:56:10;5.57;;;3.53;;
52718;SDS011;38616;42.140;24.760;2023-04-19T07:58:36;4.60;;;2.40;;
52718;SDS011;38616;42.140;24.760;2023-04-19T08:01:02;4.25;;;2.28;;
52718;SDS011;38616;42.140;24.760;2023-04-19T08:03:29;2.58;;;1.88;;
52718;SDS011;38616;42.140;24.760;2023-04-19T08:05:55;4.57;;;1.80;;
52718;SDS011;38616;42.140;24.760;2023-04-19T08:08:21;2.78;;;1.50;;
52718;SDS011;38616;42.140;24.760;2023-04-19T08:10:47;6.18;;;2.55;;
52718;SDS011;38616;42.140;24.760;2023-04-19T08:13:12;4.72;;;1.83;;
52718;SDS011;38616;42.140;24.760;2023-04-19T08:15:38;3.92;;;1.90;;
52718;SDS011;38616;42.140;24.760;2023-04-19T08:18:03;2.70;;;1.60;;
52718;SDS011;38616;42.140;24.760;2023-04-19T08:20:31;3.75;;;2.30;;
52718;SDS011;38616;42.140;24.760;2023-04-19T08:23:00;4.22;;;1.70;;
52718;SDS011;38616;42.140;24.760;2023-04-19T08:25:25;5.35;;;3.08;;
52718;SDS011;38616;42.140;24.760;2023-04-19T08:27:52;2.55;;;1.65;;
52718;SDS011;38616;42.140;24.760;2023-04-19T08:30:18;2.22;;;1.70;;
52718;SDS011;38616;42.140;24.760;2023-04-19T08:32:44;2.88;;;1.75;;
52718;SDS011;38616;42.140;24.760;2023-04-19T08:35:10;1.48;;;1.23;;
52718;SDS011;38616;42.140;24.760;2023-04-19T08:37:35;2.05;;;1.50;;
52718;SDS011;38616;42.140;24.760;2023-04-19T08:40:03;2.28;;;1.88;;
52718;SDS011;38616;42.140;24.760;2023-04-19T08:42:30;5.85;;;1.60;;
52718;SDS011;38616;42.140;24.760;2023-04-19T08:44:56;4.32;;;1.88;;
52718;SDS011;38616;42.140;24.760;2023-04-19T08:47:22;3.40;;;1.50;;
52718;SDS011;38616;42.140;24.760;2023-04-19T08:49:48;2.95;;;1.77;;
52718;SDS011;38616;42.140;24.760;2023-04-19T08:52:15;1.67;;;1.52;;
52718;SDS011;38616;42.140;24.760;2023-04-19T08:54:41;3.20;;;1.83;;
52718;SDS011;38616;42.140;24.760;2023-04-19T08:57:07;3.67;;;1.95;;
52718;SDS011;38616;42.140;24.760;2023-04-19T08:59:33;1.75;;;1.42;;
52718;SDS011;38616;42.140;24.760;2023-04-19T09:02:00;1.92;;;1.40;;
52718;SDS011;38616;42.140;24.760;2023-04-19T09:04:26;4.22;;;1.58;;
52718;SDS011;38616;42.140;24.760;2023-04-19T09:06:51;2.28;;;1.30;;
52718;SDS011;38616;42.140;24.760;2023-04-19T09:09:18;2.80;;;1.80;;
52718;SDS011;38616;42.140;24.760;2023-04-19T09:11:51;4.03;;;1.83;;
52718;SDS011;38616;42.140;24.760;2023-04-19T09:14:17;2.28;;;1.50;;
52718;SDS011;38616;42.140;24.760;2023-04-19T09:16:43;2.67;;;1.55;;
52718;SDS011;38616;42.140;24.760;2023-04-19T09:19:12;5.28;;;1.67;;
52718;SDS011;38616;42.140;24.760;2023-04-19T09:21:38;2.38;;;1.17;;
52718;SDS011;38616;42.140;24.760;2023-04-19T09:24:04;2.08;;;1.50;;
52718;SDS011;38616;42.140;24.760;2023-04-19T09:26:30;2.35;;;1.40;;
52718;SDS011;38616;42.140;24.760;2023-04-19T09:28:57;3.20;;;1.45;;
52718;SDS011;38616;42.140;24.760;2023-04-19T09:31:30;2.08;;;1.40;;
52718;SDS011;38616;42.140;24.760;2023-04-19T09:33:57;4.32;;;1.85;;
52718;SDS011;38616;42.140;24.760;2023-04-19T09:36:26;2.92;;;1.38;;
52718;SDS011;38616;42.140;24.760;2023-04-19T09:38:53;3.72;;;1.75;;
52718;SDS011;38616;42.140;24.760;2023-04-19T09:41:19;3.13;;;1.90;;
52718;SDS011;38616;42.140;24.760;2023-04-19T09:43:44;2.97;;;1.65;;
52718;SDS011;38616;42.140;24.760;2023-04-19T09:48:55;5.40;;;1.63;;
52718;SDS011;38616;42.140;24.760;2023-04-19T09:51:44;2.55;;;1.73;;
52718;SDS011;38616;42.140;24.760;2023-04-19T09:56:37;6.55;;;1.25;;
52718;SDS011;38616;42.140;24.760;2023-04-19T09:59:03;2.47;;;1.60;;
52718;SDS011;38616;42.140;24.760;2023-04-19T10:01:51;4.37;;;1.60;;
52718;SDS011;38616;42.140;24.760;2023-04-19T10:06:50;3.65;;;1.27;;
52718;SDS011;38616;42.140;24.760;2023-04-19T10:09:21;1.65;;;1.55;;
52718;SDS011;38616;42.140;24.760;2023-04-19T10:11:48;4.22;;;1.95;;
52718;SDS011;38616;42.140;24.760;2023-04-19T10:14:16;3.38;;;1.50;;
52718;SDS011;38616;42.140;24.760;2023-04-19T10:16:49;2.00;;;1.17;;
52718;SDS011;38616;42.140;24.760;2023-04-19T10:19:16;7.28;;;1.55;;
52718;SDS011;38616;42.140;24.760;2023-04-19T10:24:12;5.88;;;1.52;;
52718;SDS011;38616;42.140;24.760;2023-04-19T10:29:55;8.13;;;1.50;;
52718;SDS011;38616;42.140;24.760;2023-04-19T10:32:38;2.13;;;1.45;;
52718;SDS011;38616;42.140;24.760;2023-04-19T10:35:08;2.08;;;1.45;;
52718;SDS011;38616;42.140;24.760;2023-04-19T10:37:40;4.82;;;1.63;;
52718;SDS011;38616;42.140;24.760;2023-04-19T10:43:33;1.40;;;1.30;;
52718;SDS011;38616;42.140;24.760;2023-04-19T10:48:30;4.50;;;1.45;;
52718;SDS011;38616;42.140;24.760;2023-04-19T10:51:00;4.25;;;1.40;;
52718;SDS011;38616;42.140;24.760;2023-04-19T10:56:14;2.93;;;2.00;;
52718;SDS011;38616;42.140;24.760;2023-04-19T11:01:38;1.73;;;1.48;;
52718;SDS011;38616;42.140;24.760;2023-04-19T11:06:36;2.75;;;1.38;;
52718;SDS011;38616;42.140;24.760;2023-04-19T11:09:23;1.48;;;0.98;;
52718;SDS011;38616;42.140;24.760;2023-04-19T11:11:58;1.90;;;1.33;;
52718;SDS011;38616;42.140;24.760;2023-04-19T11:14:30;3.13;;;1.55;;
52718;SDS011;38616;42.140;24.760;2023-04-19T11:16:58;7.68;;;2.90;;
52718;SDS011;38616;42.140;24.760;2023-04-19T11:19:24;4.38;;;1.95;;
52718;SDS011;38616;42.140;24.760;2023-04-19T11:21:50;1.40;;;1.30;;
52718;SDS011;38616;42.140;24.760;2023-04-19T11:24:15;4.68;;;1.60;;
52718;SDS011;38616;42.140;24.760;2023-04-19T11:26:43;5.63;;;1.70;;
52718;SDS011;38616;42.140;24.760;2023-04-19T11:29:10;5.45;;;1.98;;
52718;SDS011;38616;42.140;24.760;2023-04-19T11:31:36;2.88;;;1.60;;
52718;SDS011;38616;42.140;24.760;2023-04-19T11:34:02;2.67;;;1.48;;
52718;SDS011;38616;42.140;24.760;2023-04-19T11:36:28;2.45;;;1.50;;
52718;SDS011;38616;42.140;24.760;2023-04-19T11:38:55;1.80;;;1.48;;
52718;SDS011;38616;42.140;24.760;2023-04-19T11:41:21;3.90;;;1.15;;
52718;SDS011;38616;42.140;24.760;2023-04-19T11:43:47;1.77;;;1.20;;
52718;SDS011;38616;42.140;24.760;2023-04-19T11:46:12;1.15;;;1.00;;
52718;SDS011;38616;42.140;24.760;2023-04-19T11:48:48;2.80;;;1.23;;
52718;SDS011;38616;42.140;24.760;2023-04-19T11:51:16;3.17;;;0.93;;
52718;SDS011;38616;42.140;24.760;2023-04-19T11:53:41;5.63;;;1.05;;
52718;SDS011;38616;42.140;24.760;2023-04-19T11:56:07;6.35;;;1.25;;
52718;SDS011;38616;42.140;24.760;2023-04-19T12:01:11;3.00;;;1.20;;
52718;SDS011;38616;42.140;24.760;2023-04-19T12:03:43;3.20;;;1.60;;
52718;SDS011;38616;42.140;24.760;2023-04-19T12:06:15;2.10;;;1.52;;
52718;SDS011;38616;42.140;24.760;2023-04-19T12:08:44;2.20;;;1.40;;
52718;SDS011;38616;42.140;24.760;2023-04-19T12:11:14;2.83;;;1.58;;
52718;SDS011;38616;42.140;24.760;2023-04-19T12:13:43;7.60;;;1.80;;
52718;SDS011;38616;42.140;24.760;2023-04-19T12:16:09;1.55;;;1.35;;
52718;SDS011;38616;42.140;24.760;2023-04-19T12:18:48;2.13;;;1.50;;
52718;SDS011;38616;42.140;24.760;2023-04-19T12:21:24;8.45;;;2.03;;
52718;SDS011;38616;42.140;24.760;2023-04-19T12:23:54;2.90;;;1.45;;
52718;SDS011;38616;42.140;24.760;2023-04-19T12:26:21;3.75;;;1.70;;
52718;SDS011;38616;42.140;24.760;2023-04-19T12:28:46;4.47;;;1.50;;
52718;SDS011;38616;42.140;24.760;2023-04-19T12:31:11;3.72;;;1.25;;
52718;SDS011;38616;42.140;24.760;2023-04-19T12:33:37;8.10;;;1.55;;
52718;SDS011;38616;42.140;24.760;2023-04-19T12:36:02;3.85;;;1.35;;
52718;SDS011;38616;42.140;24.760;2023-04-19T12:38:27;6.10;;;1.85;;
52718;SDS011;38616;42.140;24.760;2023-04-19T12:40:53;7.13;;;1.70;;
52718;SDS011;38616;42.140;24.760;2023-04-19T12:43:18;6.90;;;2.33;;
52718;SDS011;38616;42.140;24.760;2023-04-19T12:45:44;6.03;;;2.42;;
52718;SDS011;38616;42.140;24.760;2023-04-19T12:48:09;7.93;;;2.20;;
52718;SDS011;38616;42.140;24.760;2023-04-19T12:50:34;5.18;;;1.80;;
52718;SDS011;38616;42.140;24.760;2023-04-19T12:53:00;4.80;;;2.05;;
52718;SDS011;38616;42.140;24.760;2023-04-19T12:55:25;5.15;;;2.58;;
52718;SDS011;38616;42.140;24.760;2023-04-19T12:57:51;7.05;;;2.50;;
52718;SDS011;38616;42.140;24.760;2023-04-19T13:00:19;12.38;;;2.47;;
52718;SDS011;38616;42.140;24.760;2023-04-19T13:02:44;5.35;;;2.47;;
52718;SDS011;38616;42.140;24.760;2023-04-19T13:05:12;3.30;;;1.93;;
52718;SDS011;38616;42.140;24.760;2023-04-19T13:07:38;5.43;;;2.50;;
52718;SDS011;38616;42.140;24.760;2023-04-19T13:10:03;4.38;;;2.00;;
52718;SDS011;38616;42.140;24.760;2023-04-19T13:12:30;3.53;;;1.90;;
52718;SDS011;38616;42.140;24.760;2023-04-19T13:14:55;5.18;;;2.20;;
52718;SDS011;38616;42.140;24.760;2023-04-19T13:17:21;4.45;;;2.47;;
52718;SDS011;38616;42.140;24.760;2023-04-19T13:19:46;3.35;;;1.70;;
52718;SDS011;38616;42.140;24.760;2023-04-19T13:22:12;7.47;;;2.22;;
52718;SDS011;38616;42.140;24.760;2023-04-19T13:24:37;11.88;;;6.82;;
52718;SDS011;38616;42.140;24.760;2023-04-19T13:27:03;6.95;;;3.65;;
52718;SDS011;38616;42.140;24.760;2023-04-19T13:29:28;6.60;;;2.83;;
52718;SDS011;38616;42.140;24.760;2023-04-19T13:31:53;5.63;;;3.35;;
52718;SDS011;38616;42.140;24.760;2023-04-19T13:34:19;6.13;;;2.90;;
52718;SDS011;38616;42.140;24.760;2023-04-19T13:36:45;3.28;;;1.65;;
52718;SDS011;38616;42.140;24.760;2023-04-19T13:39:10;3.00;;;2.08;;
52718;SDS011;38616;42.140;24.760;2023-04-19T13:41:36;5.68;;;2.33;;
52718;SDS011;38616;42.140;24.760;2023-04-19T13:44:01;7.20;;;3.45;;
52718;SDS011;38616;42.140;24.760;2023-04-19T13:46:27;5.53;;;3.78;;
52718;SDS011;38616;42.140;24.760;2023-04-19T13:48:52;1.98;;;1.60;;
52718;SDS011;38616;42.140;24.760;2023-04-19T13:51:18;4.18;;;1.88;;
52718;SDS011;38616;42.140;24.760;2023-04-19T13:53:43;3.58;;;2.00;;
52718;SDS011;38616;42.140;24.760;2023-04-19T13:56:08;9.00;;;5.18;;
52718;SDS011;38616;42.140;24.760;2023-04-19T13:58:35;23.08;;;11.38;;
52718;SDS011;38616;42.140;24.760;2023-04-19T14:01:01;16.95;;;9.88;;
52718;SDS011;38616;42.140;24.760;2023-04-19T14:03:27;23.73;;;11.70;;
52718;SDS011;38616;42.140;24.760;2023-04-19T14:05:53;14.75;;;7.95;;
52718;SDS011;38616;42.140;24.760;2023-04-19T14:08:18;9.98;;;4.00;;
52718;SDS011;38616;42.140;24.760;2023-04-19T14:10:44;10.55;;;2.35;;
52718;SDS011;38616;42.140;24.760;2023-04-19T14:13:10;4.40;;;2.17;;
52718;SDS011;38616;42.140;24.760;2023-04-19T14:15:36;3.42;;;1.88;;
52718;SDS011;38616;42.140;24.760;2023-04-19T14:18:01;4.70;;;2.33;;
52718;SDS011;38616;42.140;24.760;2023-04-19T14:20:26;3.47;;;2.03;;
52718;SDS011;38616;42.140;24.760;2023-04-19T14:22:52;7.68;;;4.30;;
52718;SDS011;38616;42.140;24.760;2023-04-19T14:25:20;6.90;;;3.10;;
52718;SDS011;38616;42.140;24.760;2023-04-19T14:27:45;9.70;;;4.20;;
52718;SDS011;38616;42.140;24.760;2023-04-19T14:30:11;8.80;;;3.65;;
52718;SDS011;38616;42.140;24.760;2023-04-19T14:32:37;13.32;;;6.45;;
52718;SDS011;38616;42.140;24.760;2023-04-19T14:35:02;10.38;;;5.25;;
52718;SDS011;38616;42.140;24.760;2023-04-19T14:37:28;9.07;;;4.32;;
52718;SDS011;38616;42.140;24.760;2023-04-19T14:39:53;6.88;;;3.22;;
52718;SDS011;38616;42.140;24.760;2023-04-19T14:42:19;8.00;;;3.60;;
52718;SDS011;38616;42.140;24.760;2023-04-19T14:44:45;8.85;;;2.72;;
52718;SDS011;38616;42.140;24.760;2023-04-19T14:47:11;7.55;;;3.28;;
52718;SDS011;38616;42.140;24.760;2023-04-19T14:49:37;10.43;;;4.13;;
52718;SDS011;38616;42.140;24.760;2023-04-19T14:52:03;9.45;;;3.42;;
52718;SDS011;38616;42.140;24.760;2023-04-19T14:54:28;8.52;;;4.00;;
52718;SDS011;38616;42.140;24.760;2023-04-19T14:56:54;7.43;;;2.72;;
52718;SDS011;38616;42.140;24.760;2023-04-19T14:59:20;8.52;;;3.35;;